sensor_id;sensor_type;location;lat;lon;timestamp;temperature;humidity
42715;DHT22;28351;51.480;5.706;2022-09-09T00:04:15;14.40;99.90
42715;DHT22;28351;51.480;5.706;2022-09-09T00:09:45;14.40;99.90
42715;DHT22;28351;51.480;5.706;2022-09-09T00:12:24;14.40;99.90
42715;DHT22;28351;51.480;5.706;2022-09-09T00:14:56;14.40;99.90
42715;DHT22;28351;51.480;5.706;2022-09-09T00:20:12;14.30;99.90
42715;DHT22;28351;51.480;5.706;2022-09-09T00:22:46;14.20;99.90
42715;DHT22;28351;51.480;5.706;2022-09-09T00:25:27;14.20;99.90
42715;DHT22;28351;51.480;5.706;2022-09-09T00:27:56;14.20;99.90
42715;DHT22;28351;51.480;5.706;2022-09-09T00:30:25;14.10;99.90
42715;DHT22;28351;51.480;5.706;2022-09-09T00:32:57;14.10;99.90
42715;DHT22;28351;51.480;5.706;2022-09-09T00:35:38;14.10;99.90
42715;DHT22;28351;51.480;5.706;2022-09-09T00:38:15;14.10;99.90
42715;DHT22;28351;51.480;5.706;2022-09-09T00:41:13;14.10;99.90
42715;DHT22;28351;51.480;5.706;2022-09-09T00:43:40;14.10;99.90
42715;DHT22;28351;51.480;5.706;2022-09-09T00:46:25;14.10;99.90
42715;DHT22;28351;51.480;5.706;2022-09-09T00:49:25;14.10;99.90
42715;DHT22;28351;51.480;5.706;2022-09-09T00:52:20;14.00;99.90
42715;DHT22;28351;51.480;5.706;2022-09-09T00:55:05;14.00;99.90
42715;DHT22;28351;51.480;5.706;2022-09-09T00:57:35;14.00;99.90
42715;DHT22;28351;51.480;5.706;2022-09-09T01:00:17;14.00;99.90
42715;DHT22;28351;51.480;5.706;2022-09-09T01:08:09;14.00;99.90
42715;DHT22;28351;51.480;5.706;2022-09-09T01:10:52;14.00;99.90
42715;DHT22;28351;51.480;5.706;2022-09-09T01:13:26;14.00;99.90
42715;DHT22;28351;51.480;5.706;2022-09-09T01:15:53;14.00;99.90
42715;DHT22;28351;51.480;5.706;2022-09-09T01:18:21;14.00;99.90
42715;DHT22;28351;51.480;5.706;2022-09-09T01:26:42;13.90;99.90
42715;DHT22;28351;51.480;5.706;2022-09-09T01:29:10;13.90;99.90
42715;DHT22;28351;51.480;5.706;2022-09-09T01:31:42;13.80;99.90
42715;DHT22;28351;51.480;5.706;2022-09-09T01:34:17;13.90;99.90
42715;DHT22;28351;51.480;5.706;2022-09-09T01:36:46;13.80;99.90
42715;DHT22;28351;51.480;5.706;2022-09-09T01:39:13;13.80;99.90
42715;DHT22;28351;51.480;5.706;2022-09-09T01:41:39;13.70;99.90
42715;DHT22;28351;51.480;5.706;2022-09-09T01:44:05;13.70;99.90
42715;DHT22;28351;51.480;5.706;2022-09-09T01:46:32;13.70;99.90
42715;DHT22;28351;51.480;5.706;2022-09-09T01:48:59;13.70;99.90
42715;DHT22;28351;51.480;5.706;2022-09-09T01:51:26;13.70;99.90
42715;DHT22;28351;51.480;5.706;2022-09-09T01:53:52;13.60;99.90
42715;DHT22;28351;51.480;5.706;2022-09-09T01:56:39;13.60;99.90
42715;DHT22;28351;51.480;5.706;2022-09-09T02:02:17;13.70;99.90
42715;DHT22;28351;51.480;5.706;2022-09-09T02:04:49;13.70;99.90
42715;DHT22;28351;51.480;5.706;2022-09-09T02:12:43;13.70;99.90
42715;DHT22;28351;51.480;5.706;2022-09-09T02:15:26;13.70;99.90
42715;DHT22;28351;51.480;5.706;2022-09-09T02:17:56;13.70;99.90
42715;DHT22;28351;51.480;5.706;2022-09-09T02:20:24;13.70;99.90
42715;DHT22;28351;51.480;5.706;2022-09-09T02:22:51;13.70;99.90
42715;DHT22;28351;51.480;5.706;2022-09-09T02:25:20;13.70;99.90
42715;DHT22;28351;51.480;5.706;2022-09-09T02:27:48;13.60;99.90
42715;DHT22;28351;51.480;5.706;2022-09-09T02:30:14;13.60;99.90
42715;DHT22;28351;51.480;5.706;2022-09-09T02:32:40;13.60;99.90
42715;DHT22;28351;51.480;5.706;2022-09-09T02:35:14;13.60;99.90
42715;DHT22;28351;51.480;5.706;2022-09-09T02:37:42;13.60;99.90
42715;DHT22;28351;51.480;5.706;2022-09-09T02:40:11;13.60;99.90
42715;DHT22;28351;51.480;5.706;2022-09-09T02:42:41;13.60;99.90
42715;DHT22;28351;51.480;5.706;2022-09-09T02:45:09;13.60;99.90
42715;DHT22;28351;51.480;5.706;2022-09-09T02:50:15;13.60;99.90
42715;DHT22;28351;51.480;5.706;2022-09-09T02:53:09;13.60;99.90
42715;DHT22;28351;51.480;5.706;2022-09-09T02:55:46;13.50;99.90
42715;DHT22;28351;51.480;5.706;2022-09-09T02:58:14;13.50;99.90
42715;DHT22;28351;51.480;5.706;2022-09-09T03:00:43;13.50;99.90
42715;DHT22;28351;51.480;5.706;2022-09-09T03:03:10;13.60;99.90
42715;DHT22;28351;51.480;5.706;2022-09-09T03:05:36;13.60;99.90
42715;DHT22;28351;51.480;5.706;2022-09-09T03:08:03;13.60;99.90
42715;DHT22;28351;51.480;5.706;2022-09-09T03:10:29;13.60;99.90
42715;DHT22;28351;51.480;5.706;2022-09-09T03:12:54;13.60;99.90
42715;DHT22;28351;51.480;5.706;2022-09-09T03:15:21;13.70;99.90
42715;DHT22;28351;51.480;5.706;2022-09-09T03:17:49;13.70;99.90
42715;DHT22;28351;51.480;5.706;2022-09-09T03:20:16;13.80;99.90
42715;DHT22;28351;51.480;5.706;2022-09-09T03:22:41;13.80;99.90
42715;DHT22;28351;51.480;5.706;2022-09-09T03:25:07;13.90;99.90
42715;DHT22;28351;51.480;5.706;2022-09-09T03:27:33;14.00;99.90
42715;DHT22;28351;51.480;5.706;2022-09-09T03:29:58;14.00;99.90
42715;DHT22;28351;51.480;5.706;2022-09-09T03:32:25;14.00;99.90
42715;DHT22;28351;51.480;5.706;2022-09-09T03:34:53;14.00;99.90
42715;DHT22;28351;51.480;5.706;2022-09-09T03:37:21;14.10;99.90
42715;DHT22;28351;51.480;5.706;2022-09-09T03:39:48;14.10;99.90
42715;DHT22;28351;51.480;5.706;2022-09-09T03:42:14;14.10;99.90
42715;DHT22;28351;51.480;5.706;2022-09-09T03:44:40;14.20;99.90
42715;DHT22;28351;51.480;5.706;2022-09-09T03:47:07;14.20;99.90
42715;DHT22;28351;51.480;5.706;2022-09-09T03:49:33;14.30;99.90
42715;DHT22;28351;51.480;5.706;2022-09-09T03:51:58;14.30;99.90
42715;DHT22;28351;51.480;5.706;2022-09-09T03:54:25;14.30;99.90
42715;DHT22;28351;51.480;5.706;2022-09-09T03:56:51;14.30;99.90
42715;DHT22;28351;51.480;5.706;2022-09-09T03:59:16;14.40;99.90
42715;DHT22;28351;51.480;5.706;2022-09-09T04:01:42;14.40;99.90
42715;DHT22;28351;51.480;5.706;2022-09-09T04:04:08;14.50;99.90
42715;DHT22;28351;51.480;5.706;2022-09-09T04:06:34;14.40;99.90
42715;DHT22;28351;51.480;5.706;2022-09-09T04:09:00;14.50;99.90
42715;DHT22;28351;51.480;5.706;2022-09-09T04:11:28;14.50;99.90
42715;DHT22;28351;51.480;5.706;2022-09-09T04:13:53;14.50;99.90
42715;DHT22;28351;51.480;5.706;2022-09-09T04:16:19;14.50;99.90
42715;DHT22;28351;51.480;5.706;2022-09-09T04:18:45;14.50;99.90
42715;DHT22;28351;51.480;5.706;2022-09-09T04:21:11;14.50;99.90
42715;DHT22;28351;51.480;5.706;2022-09-09T04:23:38;14.40;99.90
42715;DHT22;28351;51.480;5.706;2022-09-09T04:26:04;14.40;99.90
42715;DHT22;28351;51.480;5.706;2022-09-09T04:28:33;14.50;99.90
42715;DHT22;28351;51.480;5.706;2022-09-09T04:31:10;14.50;99.90
42715;DHT22;28351;51.480;5.706;2022-09-09T04:33:36;14.50;99.90
42715;DHT22;28351;51.480;5.706;2022-09-09T04:36:03;14.50;99.90
42715;DHT22;28351;51.480;5.706;2022-09-09T04:38:29;14.50;99.90
42715;DHT22;28351;51.480;5.706;2022-09-09T04:40:55;14.50;99.90
42715;DHT22;28351;51.480;5.706;2022-09-09T04:43:21;14.60;99.90
42715;DHT22;28351;51.480;5.706;2022-09-09T04:45:48;14.60;99.90
42715;DHT22;28351;51.480;5.706;2022-09-09T04:48:14;14.60;99.90
42715;DHT22;28351;51.480;5.706;2022-09-09T04:50:40;14.60;99.90
42715;DHT22;28351;51.480;5.706;2022-09-09T04:53:06;14.70;99.90
42715;DHT22;28351;51.480;5.706;2022-09-09T04:55:34;14.60;99.90
42715;DHT22;28351;51.480;5.706;2022-09-09T04:58:07;14.60;99.90
42715;DHT22;28351;51.480;5.706;2022-09-09T05:00:34;14.60;99.90
42715;DHT22;28351;51.480;5.706;2022-09-09T05:03:10;14.50;99.90
42715;DHT22;28351;51.480;5.706;2022-09-09T05:05:35;14.50;99.90
42715;DHT22;28351;51.480;5.706;2022-09-09T05:08:03;14.40;99.90
42715;DHT22;28351;51.480;5.706;2022-09-09T05:10:29;14.40;99.90
42715;DHT22;28351;51.480;5.706;2022-09-09T05:12:54;14.40;99.90
42715;DHT22;28351;51.480;5.706;2022-09-09T05:15:20;14.40;99.90
42715;DHT22;28351;51.480;5.706;2022-09-09T05:17:47;14.40;99.90
42715;DHT22;28351;51.480;5.706;2022-09-09T05:20:13;14.40;99.90
42715;DHT22;28351;51.480;5.706;2022-09-09T05:22:38;14.40;99.90
42715;DHT22;28351;51.480;5.706;2022-09-09T05:25:04;14.40;99.90
42715;DHT22;28351;51.480;5.706;2022-09-09T05:27:30;14.40;99.90
42715;DHT22;28351;51.480;5.706;2022-09-09T05:29:58;14.40;99.90
42715;DHT22;28351;51.480;5.706;2022-09-09T05:32:23;14.40;99.90
42715;DHT22;28351;51.480;5.706;2022-09-09T05:34:49;14.40;99.90
42715;DHT22;28351;51.480;5.706;2022-09-09T05:37:15;14.40;99.90
42715;DHT22;28351;51.480;5.706;2022-09-09T05:39:42;14.40;99.90
42715;DHT22;28351;51.480;5.706;2022-09-09T05:42:07;14.40;99.90
42715;DHT22;28351;51.480;5.706;2022-09-09T05:44:33;14.40;99.90
42715;DHT22;28351;51.480;5.706;2022-09-09T05:46:58;14.40;99.90
42715;DHT22;28351;51.480;5.706;2022-09-09T05:49:24;14.40;99.90
42715;DHT22;28351;51.480;5.706;2022-09-09T05:51:50;14.40;99.90
42715;DHT22;28351;51.480;5.706;2022-09-09T05:54:16;14.50;99.90
42715;DHT22;28351;51.480;5.706;2022-09-09T05:56:42;14.50;99.90
42715;DHT22;28351;51.480;5.706;2022-09-09T05:59:08;14.50;99.90
42715;DHT22;28351;51.480;5.706;2022-09-09T06:01:35;14.60;99.90
42715;DHT22;28351;51.480;5.706;2022-09-09T06:04:02;14.60;99.90
42715;DHT22;28351;51.480;5.706;2022-09-09T06:06:35;14.60;99.90
42715;DHT22;28351;51.480;5.706;2022-09-09T06:09:06;14.60;99.90
42715;DHT22;28351;51.480;5.706;2022-09-09T06:11:37;14.70;99.90
42715;DHT22;28351;51.480;5.706;2022-09-09T06:14:04;14.70;99.90
42715;DHT22;28351;51.480;5.706;2022-09-09T06:16:30;14.80;99.90
42715;DHT22;28351;51.480;5.706;2022-09-09T06:18:58;14.80;99.90
42715;DHT22;28351;51.480;5.706;2022-09-09T06:21:31;14.80;99.90
42715;DHT22;28351;51.480;5.706;2022-09-09T06:24:02;14.90;99.90
42715;DHT22;28351;51.480;5.706;2022-09-09T06:26:33;14.90;99.90
42715;DHT22;28351;51.480;5.706;2022-09-09T06:29:00;15.00;99.90
42715;DHT22;28351;51.480;5.706;2022-09-09T06:31:30;15.10;99.90
42715;DHT22;28351;51.480;5.706;2022-09-09T06:33:57;15.10;99.90
42715;DHT22;28351;51.480;5.706;2022-09-09T06:36:28;15.20;99.90
42715;DHT22;28351;51.480;5.706;2022-09-09T06:38:54;15.20;99.90
42715;DHT22;28351;51.480;5.706;2022-09-09T06:41:22;15.30;99.90
42715;DHT22;28351;51.480;5.706;2022-09-09T06:43:48;15.30;99.90
42715;DHT22;28351;51.480;5.706;2022-09-09T06:46:32;15.30;99.90
42715;DHT22;28351;51.480;5.706;2022-09-09T06:48:59;15.30;99.90
42715;DHT22;28351;51.480;5.706;2022-09-09T06:51:35;15.30;99.90
42715;DHT22;28351;51.480;5.706;2022-09-09T06:54:02;15.40;99.90
42715;DHT22;28351;51.480;5.706;2022-09-09T06:56:33;15.50;99.90
42715;DHT22;28351;51.480;5.706;2022-09-09T06:59:00;15.60;99.90
42715;DHT22;28351;51.480;5.706;2022-09-09T07:01:31;15.70;99.90
42715;DHT22;28351;51.480;5.706;2022-09-09T07:03:58;15.70;99.90
42715;DHT22;28351;51.480;5.706;2022-09-09T07:06:29;15.60;99.90
42715;DHT22;28351;51.480;5.706;2022-09-09T07:09:00;15.60;99.90
42715;DHT22;28351;51.480;5.706;2022-09-09T07:11:32;15.60;99.90
42715;DHT22;28351;51.480;5.706;2022-09-09T07:13:59;15.60;99.90
42715;DHT22;28351;51.480;5.706;2022-09-09T07:16:25;15.70;99.90
42715;DHT22;28351;51.480;5.706;2022-09-09T07:18:54;15.80;99.90
42715;DHT22;28351;51.480;5.706;2022-09-09T07:21:24;15.90;99.90
42715;DHT22;28351;51.480;5.706;2022-09-09T07:23:51;16.00;99.90
42715;DHT22;28351;51.480;5.706;2022-09-09T07:26:19;16.20;99.90
42715;DHT22;28351;51.480;5.706;2022-09-09T07:28:45;16.20;99.90
42715;DHT22;28351;51.480;5.706;2022-09-09T07:31:31;16.40;99.90
42715;DHT22;28351;51.480;5.706;2022-09-09T07:33:58;16.50;99.90
42715;DHT22;28351;51.480;5.706;2022-09-09T07:36:27;16.50;99.90
42715;DHT22;28351;51.480;5.706;2022-09-09T07:38:58;16.60;99.90
42715;DHT22;28351;51.480;5.706;2022-09-09T07:43:59;16.80;99.90
42715;DHT22;28351;51.480;5.706;2022-09-09T07:46:28;17.00;99.90
42715;DHT22;28351;51.480;5.706;2022-09-09T07:48:56;17.20;99.90
42715;DHT22;28351;51.480;5.706;2022-09-09T07:51:26;17.30;99.90
42715;DHT22;28351;51.480;5.706;2022-09-09T07:53:58;17.40;99.90
42715;DHT22;28351;51.480;5.706;2022-09-09T07:56:25;17.30;99.90
42715;DHT22;28351;51.480;5.706;2022-09-09T07:58:53;17.50;99.90
42715;DHT22;28351;51.480;5.706;2022-09-09T08:01:24;17.60;99.90
42715;DHT22;28351;51.480;5.706;2022-09-09T08:03:56;17.70;99.90
42715;DHT22;28351;51.480;5.706;2022-09-09T08:06:25;18.00;99.90
42715;DHT22;28351;51.480;5.706;2022-09-09T08:08:52;18.10;99.90
42715;DHT22;28351;51.480;5.706;2022-09-09T08:11:18;18.30;99.90
42715;DHT22;28351;51.480;5.706;2022-09-09T08:13:44;18.30;99.90
42715;DHT22;28351;51.480;5.706;2022-09-09T08:16:19;18.40;99.90
42715;DHT22;28351;51.480;5.706;2022-09-09T08:18:47;18.50;99.90
42715;DHT22;28351;51.480;5.706;2022-09-09T08:21:19;18.60;99.90
42715;DHT22;28351;51.480;5.706;2022-09-09T08:23:46;18.60;99.90
42715;DHT22;28351;51.480;5.706;2022-09-09T08:26:17;18.70;99.90
42715;DHT22;28351;51.480;5.706;2022-09-09T08:28:47;18.80;99.90
42715;DHT22;28351;51.480;5.706;2022-09-09T08:33:44;18.60;99.90
42715;DHT22;28351;51.480;5.706;2022-09-09T08:36:16;18.60;99.90
42715;DHT22;28351;51.480;5.706;2022-09-09T08:38:42;18.50;99.90
42715;DHT22;28351;51.480;5.706;2022-09-09T08:43:51;18.50;99.90
42715;DHT22;28351;51.480;5.706;2022-09-09T08:49:01;18.60;99.90
42715;DHT22;28351;51.480;5.706;2022-09-09T08:51:30;18.80;99.90
42715;DHT22;28351;51.480;5.706;2022-09-09T08:54:00;18.70;99.90
42715;DHT22;28351;51.480;5.706;2022-09-09T08:56:28;18.80;99.90
42715;DHT22;28351;51.480;5.706;2022-09-09T08:58:56;18.80;99.90
42715;DHT22;28351;51.480;5.706;2022-09-09T09:06:59;18.90;99.90
42715;DHT22;28351;51.480;5.706;2022-09-09T09:09:51;18.80;99.90
42715;DHT22;28351;51.480;5.706;2022-09-09T09:12:27;18.60;99.90
42715;DHT22;28351;51.480;5.706;2022-09-09T09:14:54;18.70;99.90
42715;DHT22;28351;51.480;5.706;2022-09-09T09:17:24;18.60;99.90
42715;DHT22;28351;51.480;5.706;2022-09-09T09:19:50;18.50;99.90
42715;DHT22;28351;51.480;5.706;2022-09-09T09:22:26;18.40;99.90
42715;DHT22;28351;51.480;5.706;2022-09-09T09:25:19;18.20;99.90
42715;DHT22;28351;51.480;5.706;2022-09-09T09:28:15;18.10;99.90
42715;DHT22;28351;51.480;5.706;2022-09-09T09:33:31;18.20;99.90
42715;DHT22;28351;51.480;5.706;2022-09-09T09:35:58;18.40;99.90
42715;DHT22;28351;51.480;5.706;2022-09-09T09:38:26;18.50;99.90
42715;DHT22;28351;51.480;5.706;2022-09-09T09:40:57;18.50;99.90
42715;DHT22;28351;51.480;5.706;2022-09-09T09:43:34;18.60;99.90
42715;DHT22;28351;51.480;5.706;2022-09-09T09:46:00;18.60;99.90
42715;DHT22;28351;51.480;5.706;2022-09-09T09:48:28;18.50;99.90
42715;DHT22;28351;51.480;5.706;2022-09-09T09:50:56;18.40;99.90
42715;DHT22;28351;51.480;5.706;2022-09-09T09:53:28;18.40;99.90
42715;DHT22;28351;51.480;5.706;2022-09-09T09:56:03;18.20;99.90
42715;DHT22;28351;51.480;5.706;2022-09-09T09:58:33;18.20;99.90
42715;DHT22;28351;51.480;5.706;2022-09-09T10:01:02;18.20;99.90
42715;DHT22;28351;51.480;5.706;2022-09-09T10:03:30;18.20;99.90
42715;DHT22;28351;51.480;5.706;2022-09-09T10:05:56;18.30;99.90
42715;DHT22;28351;51.480;5.706;2022-09-09T10:08:26;18.40;99.90
42715;DHT22;28351;51.480;5.706;2022-09-09T10:19:15;19.40;99.90
42715;DHT22;28351;51.480;5.706;2022-09-09T10:24:32;19.30;99.90
42715;DHT22;28351;51.480;5.706;2022-09-09T10:27:11;19.30;99.90
42715;DHT22;28351;51.480;5.706;2022-09-09T10:35:02;18.90;99.90
42715;DHT22;28351;51.480;5.706;2022-09-09T10:48:54;18.10;99.90
42715;DHT22;28351;51.480;5.706;2022-09-09T10:51:23;17.60;99.90
42715;DHT22;28351;51.480;5.706;2022-09-09T10:53:53;17.30;99.90
42715;DHT22;28351;51.480;5.706;2022-09-09T10:56:23;17.10;99.90
42715;DHT22;28351;51.480;5.706;2022-09-09T11:02:05;16.80;99.90
42715;DHT22;28351;51.480;5.706;2022-09-09T11:04:50;16.80;99.90
42715;DHT22;28351;51.480;5.706;2022-09-09T11:07:33;16.80;99.90
42715;DHT22;28351;51.480;5.706;2022-09-09T11:10:04;16.80;99.90
42715;DHT22;28351;51.480;5.706;2022-09-09T11:12:34;16.60;99.90
42715;DHT22;28351;51.480;5.706;2022-09-09T11:15:17;16.50;99.90
42715;DHT22;28351;51.480;5.706;2022-09-09T11:17:55;16.30;99.90
42715;DHT22;28351;51.480;5.706;2022-09-09T11:20:22;16.20;99.90
42715;DHT22;28351;51.480;5.706;2022-09-09T11:23:14;16.30;99.90
42715;DHT22;28351;51.480;5.706;2022-09-09T11:25:48;16.30;99.90
42715;DHT22;28351;51.480;5.706;2022-09-09T11:31:21;16.60;99.90
42715;DHT22;28351;51.480;5.706;2022-09-09T11:42:28;19.10;99.90
42715;DHT22;28351;51.480;5.706;2022-09-09T11:44:53;20.00;99.90
42715;DHT22;28351;51.480;5.706;2022-09-09T11:47:27;20.50;99.90
42715;DHT22;28351;51.480;5.706;2022-09-09T11:52:46;19.80;99.90
42715;DHT22;28351;51.480;5.706;2022-09-09T11:55:33;19.80;99.90
42715;DHT22;28351;51.480;5.706;2022-09-09T11:58:05;19.50;99.90
42715;DHT22;28351;51.480;5.706;2022-09-09T12:03:47;19.20;99.90
42715;DHT22;28351;51.480;5.706;2022-09-09T12:08:43;19.10;99.90
42715;DHT22;28351;51.480;5.706;2022-09-09T12:11:11;19.10;99.90
42715;DHT22;28351;51.480;5.706;2022-09-09T12:13:36;19.10;99.90
42715;DHT22;28351;51.480;5.706;2022-09-09T12:16:02;19.20;99.90
42715;DHT22;28351;51.480;5.706;2022-09-09T12:18:35;19.00;99.90
42715;DHT22;28351;51.480;5.706;2022-09-09T12:21:18;18.80;99.90
42715;DHT22;28351;51.480;5.706;2022-09-09T12:23:56;18.70;99.90
42715;DHT22;28351;51.480;5.706;2022-09-09T12:26:47;18.80;99.90
42715;DHT22;28351;51.480;5.706;2022-09-09T12:34:38;19.70;99.90
42715;DHT22;28351;51.480;5.706;2022-09-09T12:37:29;20.00;99.90
42715;DHT22;28351;51.480;5.706;2022-09-09T12:39:58;19.70;99.90
42715;DHT22;28351;51.480;5.706;2022-09-09T12:42:25;20.70;99.90
42715;DHT22;28351;51.480;5.706;2022-09-09T12:45:00;21.50;99.90
42715;DHT22;28351;51.480;5.706;2022-09-09T12:47:39;21.20;99.90
42715;DHT22;28351;51.480;5.706;2022-09-09T12:50:34;21.20;99.90
42715;DHT22;28351;51.480;5.706;2022-09-09T12:55:51;22.40;99.90
42715;DHT22;28351;51.480;5.706;2022-09-09T12:58:19;22.80;99.90
42715;DHT22;28351;51.480;5.706;2022-09-09T13:00:52;22.30;99.90
42715;DHT22;28351;51.480;5.706;2022-09-09T13:03:21;21.30;99.90
42715;DHT22;28351;51.480;5.706;2022-09-09T13:05:48;20.30;99.90
42715;DHT22;28351;51.480;5.706;2022-09-09T13:08:17;20.20;99.90
42715;DHT22;28351;51.480;5.706;2022-09-09T13:10:58;20.10;99.90
42715;DHT22;28351;51.480;5.706;2022-09-09T13:13:40;20.10;99.90
42715;DHT22;28351;51.480;5.706;2022-09-09T13:16:18;20.00;99.90
42715;DHT22;28351;51.480;5.706;2022-09-09T13:18:44;19.90;99.90
42715;DHT22;28351;51.480;5.706;2022-09-09T13:21:11;19.80;99.90
42715;DHT22;28351;51.480;5.706;2022-09-09T13:23:48;19.80;99.90
42715;DHT22;28351;51.480;5.706;2022-09-09T13:26:26;19.50;99.90
42715;DHT22;28351;51.480;5.706;2022-09-09T13:28:55;19.40;99.90
42715;DHT22;28351;51.480;5.706;2022-09-09T13:31:35;19.60;99.90
42715;DHT22;28351;51.480;5.706;2022-09-09T13:34:22;20.20;99.90
42715;DHT22;28351;51.480;5.706;2022-09-09T13:36:55;21.20;99.90
42715;DHT22;28351;51.480;5.706;2022-09-09T13:39:23;22.70;99.90
42715;DHT22;28351;51.480;5.706;2022-09-09T13:41:48;23.30;99.90
42715;DHT22;28351;51.480;5.706;2022-09-09T13:44:19;23.50;99.90
42715;DHT22;28351;51.480;5.706;2022-09-09T13:47:03;24.30;99.90
42715;DHT22;28351;51.480;5.706;2022-09-09T13:49:30;24.10;99.90
42715;DHT22;28351;51.480;5.706;2022-09-09T13:52:11;22.90;99.90
42715;DHT22;28351;51.480;5.706;2022-09-09T13:54:39;22.30;99.90
42715;DHT22;28351;51.480;5.706;2022-09-09T13:57:06;21.60;99.90
42715;DHT22;28351;51.480;5.706;2022-09-09T13:59:39;21.30;99.90
42715;DHT22;28351;51.480;5.706;2022-09-09T14:02:04;21.00;99.90
42715;DHT22;28351;51.480;5.706;2022-09-09T14:04:33;21.70;99.90
42715;DHT22;28351;51.480;5.706;2022-09-09T14:07:00;23.10;99.90
42715;DHT22;28351;51.480;5.706;2022-09-09T14:09:26;24.20;99.90
42715;DHT22;28351;51.480;5.706;2022-09-09T14:11:51;23.50;99.90
42715;DHT22;28351;51.480;5.706;2022-09-09T14:14:17;22.80;99.90
42715;DHT22;28351;51.480;5.706;2022-09-09T14:16:42;22.80;99.90
42715;DHT22;28351;51.480;5.706;2022-09-09T14:19:09;24.10;99.90
42715;DHT22;28351;51.480;5.706;2022-09-09T14:21:35;24.60;99.90
42715;DHT22;28351;51.480;5.706;2022-09-09T14:24:00;26.00;99.90
42715;DHT22;28351;51.480;5.706;2022-09-09T14:26:26;25.60;99.90
42715;DHT22;28351;51.480;5.706;2022-09-09T14:28:54;25.20;99.90
42715;DHT22;28351;51.480;5.706;2022-09-09T14:31:19;24.40;99.90
42715;DHT22;28351;51.480;5.706;2022-09-09T14:33:46;23.50;99.90
42715;DHT22;28351;51.480;5.706;2022-09-09T14:36:12;22.70;99.90
42715;DHT22;28351;51.480;5.706;2022-09-09T14:38:38;22.00;99.90
42715;DHT22;28351;51.480;5.706;2022-09-09T14:41:12;21.40;99.90
42715;DHT22;28351;51.480;5.706;2022-09-09T14:43:39;21.20;99.90
42715;DHT22;28351;51.480;5.706;2022-09-09T14:46:10;20.90;99.90
42715;DHT22;28351;51.480;5.706;2022-09-09T14:48:36;21.90;99.90
42715;DHT22;28351;51.480;5.706;2022-09-09T14:51:06;23.90;99.90
42715;DHT22;28351;51.480;5.706;2022-09-09T14:53:32;26.50;99.90
42715;DHT22;28351;51.480;5.706;2022-09-09T14:56:09;27.80;99.90
42715;DHT22;28351;51.480;5.706;2022-09-09T14:58:35;28.10;99.90
42715;DHT22;28351;51.480;5.706;2022-09-09T15:01:03;28.10;99.90
42715;DHT22;28351;51.480;5.706;2022-09-09T15:03:29;28.20;99.90
42715;DHT22;28351;51.480;5.706;2022-09-09T15:05:54;28.20;99.90
42715;DHT22;28351;51.480;5.706;2022-09-09T15:08:20;28.40;99.90
42715;DHT22;28351;51.480;5.706;2022-09-09T15:10:46;28.90;99.90
42715;DHT22;28351;51.480;5.706;2022-09-09T15:13:14;27.60;99.90
42715;DHT22;28351;51.480;5.706;2022-09-09T15:15:42;26.50;99.90
42715;DHT22;28351;51.480;5.706;2022-09-09T15:18:08;25.50;99.90
42715;DHT22;28351;51.480;5.706;2022-09-09T15:20:33;24.20;99.90
42715;DHT22;28351;51.480;5.706;2022-09-09T15:23:00;23.70;99.90
42715;DHT22;28351;51.480;5.706;2022-09-09T15:25:26;23.40;99.90
42715;DHT22;28351;51.480;5.706;2022-09-09T15:27:52;23.40;99.90
42715;DHT22;28351;51.480;5.706;2022-09-09T15:30:17;23.60;99.90
42715;DHT22;28351;51.480;5.706;2022-09-09T15:32:43;23.20;99.90
42715;DHT22;28351;51.480;5.706;2022-09-09T15:35:08;23.10;99.90
42715;DHT22;28351;51.480;5.706;2022-09-09T15:37:34;22.70;99.90
42715;DHT22;28351;51.480;5.706;2022-09-09T15:39:59;22.10;99.90
42715;DHT22;28351;51.480;5.706;2022-09-09T15:42:26;22.00;99.90
42715;DHT22;28351;51.480;5.706;2022-09-09T15:44:51;21.90;99.90
42715;DHT22;28351;51.480;5.706;2022-09-09T15:47:17;21.60;99.90
42715;DHT22;28351;51.480;5.706;2022-09-09T15:49:43;21.30;99.90
42715;DHT22;28351;51.480;5.706;2022-09-09T15:52:10;21.30;99.90
42715;DHT22;28351;51.480;5.706;2022-09-09T15:54:36;21.50;99.90
42715;DHT22;28351;51.480;5.706;2022-09-09T15:57:06;21.60;99.90
42715;DHT22;28351;51.480;5.706;2022-09-09T15:59:34;21.60;99.90
42715;DHT22;28351;51.480;5.706;2022-09-09T16:02:00;21.20;99.90
42715;DHT22;28351;51.480;5.706;2022-09-09T16:04:27;21.00;99.90
42715;DHT22;28351;51.480;5.706;2022-09-09T16:07:02;20.90;99.90
42715;DHT22;28351;51.480;5.706;2022-09-09T16:09:32;20.70;99.90
42715;DHT22;28351;51.480;5.706;2022-09-09T16:11:59;20.60;99.90
42715;DHT22;28351;51.480;5.706;2022-09-09T16:14:26;20.50;99.90
42715;DHT22;28351;51.480;5.706;2022-09-09T16:16:52;20.50;99.90
42715;DHT22;28351;51.480;5.706;2022-09-09T16:19:18;20.20;99.90
42715;DHT22;28351;51.480;5.706;2022-09-09T16:21:49;19.50;99.90
42715;DHT22;28351;51.480;5.706;2022-09-09T16:24:17;19.10;99.90
42715;DHT22;28351;51.480;5.706;2022-09-09T16:26:45;18.90;99.90
42715;DHT22;28351;51.480;5.706;2022-09-09T16:29:11;18.90;99.90
42715;DHT22;28351;51.480;5.706;2022-09-09T16:31:38;18.80;99.90
42715;DHT22;28351;51.480;5.706;2022-09-09T16:34:04;18.70;99.90
42715;DHT22;28351;51.480;5.706;2022-09-09T16:36:32;18.60;99.90
42715;DHT22;28351;51.480;5.706;2022-09-09T16:38:59;18.50;99.90
42715;DHT22;28351;51.480;5.706;2022-09-09T16:41:27;18.50;99.90
42715;DHT22;28351;51.480;5.706;2022-09-09T16:43:57;18.40;99.90
42715;DHT22;28351;51.480;5.706;2022-09-09T16:46:24;18.40;99.90
42715;DHT22;28351;51.480;5.706;2022-09-09T16:48:51;18.30;99.90
42715;DHT22;28351;51.480;5.706;2022-09-09T16:51:19;18.20;99.90
42715;DHT22;28351;51.480;5.706;2022-09-09T16:53:45;18.00;99.90
42715;DHT22;28351;51.480;5.706;2022-09-09T16:56:16;17.70;99.90
42715;DHT22;28351;51.480;5.706;2022-09-09T16:58:43;17.60;99.90
42715;DHT22;28351;51.480;5.706;2022-09-09T17:01:10;17.40;99.90
42715;DHT22;28351;51.480;5.706;2022-09-09T17:03:39;17.30;99.90
42715;DHT22;28351;51.480;5.706;2022-09-09T17:06:09;17.00;99.90
42715;DHT22;28351;51.480;5.706;2022-09-09T17:08:35;16.00;99.90
42715;DHT22;28351;51.480;5.706;2022-09-09T17:11:01;15.60;99.90
42715;DHT22;28351;51.480;5.706;2022-09-09T17:13:26;15.40;99.90
42715;DHT22;28351;51.480;5.706;2022-09-09T17:15:57;15.40;99.90
42715;DHT22;28351;51.480;5.706;2022-09-09T17:18:26;15.40;99.90
42715;DHT22;28351;51.480;5.706;2022-09-09T17:21:04;15.50;99.90
42715;DHT22;28351;51.480;5.706;2022-09-09T17:23:35;15.60;99.90
42715;DHT22;28351;51.480;5.706;2022-09-09T17:26:29;15.50;99.90
42715;DHT22;28351;51.480;5.706;2022-09-09T17:28:56;15.60;99.90
42715;DHT22;28351;51.480;5.706;2022-09-09T17:31:23;15.70;99.90
42715;DHT22;28351;51.480;5.706;2022-09-09T17:33:53;15.80;99.90
42715;DHT22;28351;51.480;5.706;2022-09-09T17:36:27;15.70;99.90